createdAt,value
2023-03-13T03:25:07.739Z,98.83
2023-03-13T03:26:07.731Z,98.65
2023-03-13T03:27:07.714Z,98.74
2023-03-13T03:28:07.723Z,99.31
2023-03-13T03:29:07.716Z,99.31
2023-03-13T03:30:07.740Z,99.69
2023-03-13T03:31:07.719Z,99.69
2023-03-13T03:32:07.793Z,99.99
2023-03-13T03:33:07.725Z,99.69
2023-03-13T03:34:07.743Z,99.50
2023-03-13T03:35:07.729Z,99.99
2023-03-13T03:36:07.806Z,99.98
2023-03-13T03:37:07.742Z,99.99
2023-03-13T03:38:07.744Z,99.99
2023-03-13T03:39:07.742Z,99.99
2023-03-13T03:40:07.746Z,99.99
2023-03-13T03:41:07.782Z,99.99
2023-03-13T03:42:07.756Z,99.99
2023-03-13T03:43:07.755Z,99.99
2023-03-13T03:44:07.763Z,99.99
2023-03-13T03:45:07.766Z,99.99
2023-03-13T03:46:07.846Z,99.99
2023-03-13T03:47:07.823Z,99.99
2023-03-13T03:48:07.769Z,99.99
2023-03-13T03:49:07.767Z,99.99
2023-03-13T03:50:07.780Z,99.99
2023-03-13T03:51:07.806Z,99.99
2023-03-13T03:52:07.792Z,99.99
2023-03-13T03:53:07.778Z,99.99
2023-03-13T03:54:07.790Z,99.99
2023-03-13T03:55:07.799Z,99.99
2023-03-13T03:56:07.812Z,99.99
2023-03-13T03:57:07.818Z,99.99
2023-03-13T03:58:07.796Z,99.99
2023-03-13T03:59:07.796Z,99.99
2023-03-13T04:00:07.847Z,99.99
2023-03-13T04:01:07.803Z,99.99
2023-03-13T04:02:07.876Z,99.99
2023-03-13T04:03:07.891Z,99.99
2023-03-13T04:04:07.819Z,99.99
2023-03-13T04:05:07.822Z,99.99
2023-03-13T04:06:07.832Z,99.99
2023-03-13T04:07:07.828Z,99.99
2023-03-13T04:08:07.832Z,99.99
2023-03-13T04:09:07.829Z,99.99
2023-03-13T04:10:07.838Z,99.99
2023-03-13T04:11:07.843Z,99.99
2023-03-13T04:31:46.722Z,99.99
2023-03-13T04:32:46.806Z,99.99
2023-03-13T04:33:46.692Z,99.99
2023-03-13T04:34:46.698Z,99.99
2023-03-13T04:35:46.880Z,99.99
2023-03-13T04:36:46.698Z,99.99
2023-03-13T04:37:46.696Z,99.99
2023-03-13T04:38:46.692Z,99.99
2023-03-13T04:39:46.692Z,99.99
2023-03-13T04:40:46.701Z,99.99
2023-03-13T04:41:46.711Z,99.99
2023-03-13T04:42:46.708Z,99.99
2023-03-13T04:43:46.710Z,99.99
2023-03-13T04:44:46.714Z,99.99
2023-03-13T04:45:46.775Z,99.99
2023-03-13T04:46:46.731Z,99.99
2023-03-13T04:47:46.741Z,99.99
2023-03-13T04:48:46.726Z,99.99
2023-03-13T04:49:46.721Z,99.99
2023-03-13T04:50:46.728Z,99.99
2023-03-13T04:51:46.726Z,99.99
2023-03-13T04:52:49.449Z,99.99
2023-03-13T04:53:46.740Z,99.99
2023-03-13T04:54:46.732Z,99.99
2023-03-13T04:55:46.733Z,99.99
2023-03-13T04:56:46.736Z,99.99
2023-03-13T04:57:46.749Z,99.99
2023-03-13T04:58:47.140Z,99.99
2023-03-13T04:59:46.758Z,99.99
2023-03-13T05:00:46.749Z,99.99
2023-03-13T05:01:46.818Z,99.99
2023-03-13T05:02:46.752Z,99.99
2023-03-13T05:03:46.790Z,99.99
2023-03-13T05:04:46.785Z,99.99
2023-03-13T05:05:46.775Z,99.99
2023-03-13T05:06:46.763Z,99.99
2023-03-13T05:07:46.764Z,99.99
2023-03-13T05:08:46.775Z,99.99
2023-03-13T05:09:46.769Z,99.99
2023-03-13T05:10:46.780Z,99.99
2023-03-13T05:11:46.784Z,99.99
2023-03-13T05:12:46.780Z,99.99
2023-03-13T05:13:46.782Z,99.99
2023-03-13T05:14:46.785Z,99.99
2023-03-13T05:15:46.815Z,99.99
2023-03-13T05:16:46.790Z,99.99
2023-03-13T05:17:46.800Z,99.99
2023-03-13T05:18:46.801Z,99.99
2023-03-13T05:19:46.827Z,99.99
2023-03-13T05:20:46.817Z,99.99
2023-03-13T05:21:46.805Z,99.99
2023-03-13T05:22:46.811Z,99.99
2023-03-13T05:23:46.817Z,99.99
2023-03-13T05:24:46.812Z,99.99
2023-03-13T05:25:46.816Z,99.99
2023-03-13T05:26:46.817Z,99.99
2023-03-13T05:27:46.828Z,99.99
2023-03-13T05:28:46.822Z,99.99
2023-03-13T05:29:46.834Z,99.99
2023-03-13T05:30:46.918Z,99.99
2023-03-13T05:31:46.833Z,99.99
2023-03-13T05:32:46.919Z,99.99
2023-03-13T05:33:46.835Z,99.99
2023-03-13T05:34:46.863Z,99.99
2023-03-13T05:35:46.965Z,99.99
2023-03-13T05:36:46.859Z,99.99
2023-03-13T05:37:46.860Z,99.99
2023-03-13T05:38:46.861Z,99.99
2023-03-13T05:39:46.851Z,99.99
2023-03-13T05:40:46.856Z,99.99
2023-03-13T05:41:46.865Z,99.99
2023-03-13T05:42:46.869Z,99.99
2023-03-13T05:43:46.865Z,99.99
2023-03-13T05:44:46.866Z,99.99
2023-03-13T05:45:46.876Z,99.99
2023-03-13T05:46:46.954Z,99.99
2023-03-13T05:47:46.872Z,99.99
2023-03-13T05:48:46.877Z,99.99
2023-03-13T05:49:46.884Z,99.99
2023-03-13T05:50:46.878Z,99.99
2023-03-13T05:51:46.918Z,99.99
2023-03-13T05:52:46.884Z,99.99
2023-03-13T05:53:46.890Z,99.99
2023-03-13T05:54:46.887Z,99.99
2023-03-13T05:55:46.901Z,99.99
2023-03-13T05:56:46.893Z,99.99
2023-03-13T05:57:46.894Z,99.99
2023-03-13T05:58:46.899Z,99.99
2023-03-13T05:59:46.908Z,99.99
2023-03-13T06:00:46.907Z,99.99
2023-03-13T06:01:46.923Z,99.99
2023-03-13T06:02:46.911Z,99.99
2023-03-13T06:03:47.095Z,99.99
2023-03-13T06:04:47.072Z,99.99
2023-03-13T06:05:46.923Z,99.99
2023-03-13T06:06:46.920Z,99.99
2023-03-13T06:07:46.947Z,99.99
2023-03-13T06:08:46.930Z,99.99
2023-03-13T06:09:46.923Z,99.99
2023-03-13T06:10:46.937Z,99.99
2023-03-13T06:11:46.939Z,99.99
2023-03-13T06:12:46.934Z,99.99
2023-03-13T06:13:46.938Z,99.99
2023-03-13T06:14:46.937Z,99.99
2023-03-13T06:15:46.970Z,99.99
2023-03-13T06:16:46.943Z,99.99
2023-03-13T06:17:46.946Z,99.99
2023-03-13T06:18:46.956Z,99.99
2023-03-13T06:19:46.950Z,99.99
2023-03-13T06:20:46.948Z,99.99
2023-03-13T06:21:46.980Z,99.99
2023-03-13T06:22:46.958Z,99.99
2023-03-13T06:23:46.977Z,99.99
2023-03-13T06:24:46.973Z,99.99
2023-03-13T06:25:46.970Z,99.99
2023-03-13T06:26:49.329Z,99.99
2023-03-13T06:27:46.962Z,99.99
2023-03-13T06:28:46.973Z,99.99
2023-03-13T06:29:46.974Z,99.99
2023-03-13T06:30:46.980Z,99.99
2023-03-13T06:31:47.145Z,99.99
2023-03-13T06:32:47.153Z,99.99
2023-03-13T06:33:48.601Z,99.99
2023-03-13T06:34:46.989Z,99.99
2023-03-13T06:35:56.119Z,99.99
2023-03-13T06:36:46.994Z,99.99
2023-03-13T06:37:47.001Z,99.99
2023-03-13T06:38:46.994Z,99.99
2023-03-13T06:39:47.022Z,99.99
2023-03-13T06:40:48.021Z,99.99
2023-03-13T06:41:47.014Z,99.99
2023-03-13T06:42:47.017Z,99.99
2023-03-13T06:43:47.010Z,99.99
2023-03-13T06:44:47.019Z,99.99
2023-03-13T06:45:47.012Z,99.99
2023-03-13T06:46:47.065Z,99.99
2023-03-13T06:47:47.019Z,99.99
2023-03-13T06:48:47.028Z,99.99
2023-03-13T06:49:47.030Z,99.99
2023-03-13T06:50:47.040Z,99.99
2023-03-13T06:51:47.037Z,99.99
2023-03-13T06:52:47.030Z,99.99
2023-03-13T06:53:47.041Z,99.99
2023-03-13T06:54:47.041Z,99.99
2023-03-13T06:55:47.074Z,99.99
2023-03-13T06:56:47.049Z,99.99
2023-03-13T06:57:47.053Z,99.99
2023-03-13T06:58:47.046Z,99.99
2023-03-13T06:59:47.050Z,99.99
2023-03-13T07:00:47.139Z,99.99
2023-03-13T07:01:47.058Z,99.99
2023-03-13T07:02:47.066Z,99.99
2023-03-13T07:03:47.091Z,99.99
2023-03-13T07:04:47.067Z,99.99
2023-03-13T07:05:47.077Z,99.99
2023-03-13T07:06:47.083Z,99.99
2023-03-13T07:07:47.101Z,99.99
2023-03-13T07:08:47.085Z,99.99
2023-03-13T07:09:47.082Z,99.99
2023-03-13T07:10:47.082Z,99.99
2023-03-13T07:11:47.116Z,99.99
2023-03-13T07:12:47.089Z,99.99
2023-03-13T07:13:47.094Z,99.99
2023-03-13T07:14:47.102Z,99.99
2023-03-13T07:15:47.106Z,99.99
2023-03-13T07:16:47.198Z,99.99
2023-03-13T07:17:47.105Z,99.99
2023-03-13T07:18:47.117Z,99.99
2023-03-13T07:19:47.109Z,99.99
2023-03-13T07:20:47.115Z,99.99
2023-03-13T07:21:47.124Z,99.99
2023-03-13T07:22:47.120Z,99.99
2023-03-13T07:23:47.136Z,99.99
2023-03-13T07:24:47.158Z,99.99
2023-03-13T07:25:47.131Z,99.99
2023-03-13T07:27:02.044Z,99.99
2023-03-13T07:27:47.174Z,99.99
2023-03-13T07:28:47.145Z,99.99
2023-03-13T07:29:47.139Z,99.99
2023-03-13T07:30:47.143Z,99.99
2023-03-13T07:31:47.247Z,99.99
2023-03-13T07:32:47.313Z,99.99
2023-03-13T07:33:47.161Z,99.99
2023-03-13T07:34:47.154Z,99.99
2023-03-13T07:35:47.164Z,99.99
2023-03-13T07:36:47.166Z,99.99
2023-03-13T07:37:47.166Z,99.99
2023-03-13T07:38:47.174Z,99.99
2023-03-13T07:39:47.168Z,99.99
2023-03-13T07:40:47.174Z,99.99
2023-03-13T07:41:47.180Z,99.99
2023-03-13T07:42:47.199Z,99.99
2023-03-13T07:43:47.207Z,99.99
2023-03-13T07:44:47.182Z,99.99
2023-03-13T07:45:47.253Z,99.99
2023-03-13T07:46:47.186Z,99.99
2023-03-13T07:47:47.191Z,99.99
2023-03-13T07:48:47.198Z,99.99
2023-03-13T07:49:47.198Z,99.99
2023-03-13T07:51:42.622Z,99.99
2023-03-13T07:52:29.750Z,99.99
2023-03-13T07:53:29.796Z,99.99
2023-03-13T07:54:29.748Z,99.99
2023-03-13T07:55:29.755Z,99.99
2023-03-13T07:56:29.754Z,99.99
2023-03-13T07:57:29.760Z,99.99
2023-03-13T07:58:29.772Z,99.99
2023-03-13T07:59:29.796Z,99.99
2023-03-13T08:00:29.771Z,99.99
2023-03-13T08:01:31.122Z,99.99
2023-03-13T08:02:29.822Z,99.99
2023-03-13T08:03:29.821Z,99.99
2023-03-13T08:04:29.783Z,99.99
2023-03-13T08:05:29.787Z,99.99
2023-03-13T08:06:31.348Z,99.99
2023-03-13T08:07:29.799Z,99.99
2023-03-13T08:08:29.801Z,99.99
2023-03-13T08:09:29.798Z,99.99
2023-03-13T08:10:29.812Z,99.99
2023-03-13T08:11:29.806Z,99.99
2023-03-13T08:12:29.808Z,99.99
2023-03-13T08:13:29.810Z,99.99
2023-03-13T08:14:29.826Z,99.99
2023-03-13T08:15:29.846Z,99.99
2023-03-13T08:16:29.873Z,99.99
2023-03-13T08:17:29.823Z,99.99
2023-03-13T08:18:29.854Z,99.99
2023-03-13T08:19:29.849Z,99.99
2023-03-13T08:20:29.834Z,99.99
2023-03-13T08:21:29.835Z,99.99
2023-03-13T08:22:29.847Z,99.99
2023-03-13T08:23:29.849Z,99.99
2023-03-13T08:25:42.448Z,99.99
2023-03-13T08:26:42.458Z,99.99
2023-03-13T08:27:42.450Z,99.99
2023-03-13T08:28:42.464Z,99.99
2023-03-13T08:29:42.460Z,99.99
2023-03-13T08:30:42.522Z,99.99
2023-03-13T08:31:42.464Z,99.99
2023-03-13T08:32:42.525Z,99.99
2023-03-13T08:33:42.480Z,99.99
2023-03-13T08:34:42.484Z,99.99
2023-03-13T08:35:42.552Z,99.99
2023-03-13T08:36:42.533Z,99.99
2023-03-13T08:37:42.500Z,99.99
2023-03-13T08:38:43.761Z,99.99
2023-03-13T08:39:42.495Z,99.99
2023-03-13T08:41:35.067Z,99.99
2023-03-13T08:42:35.071Z,99.99
2023-03-13T08:53:29.219Z,99.99
2023-03-13T08:54:29.222Z,99.99
2023-03-13T08:55:29.202Z,99.99
2023-03-13T08:56:29.204Z,99.99
2023-03-13T08:57:29.217Z,99.99
2023-03-13T08:58:29.220Z,99.99
2023-03-13T08:59:29.218Z,99.99
2023-03-13T09:00:29.231Z,99.99
2023-03-13T09:01:29.247Z,99.99
2023-03-13T09:02:29.250Z,99.99
2023-03-13T09:03:29.271Z,99.99
2023-03-13T09:06:01.877Z,99.99
2023-03-13T09:07:01.884Z,99.99
2023-03-13T09:08:01.883Z,99.99
2023-03-13T09:09:01.908Z,99.99
2023-03-13T09:10:01.900Z,99.99
2023-03-13T09:11:01.904Z,99.99
2023-03-13T09:12:01.964Z,99.99
2023-03-13T09:13:01.922Z,99.99
2023-03-13T09:14:01.943Z,99.99
2023-03-13T09:15:01.918Z,99.99
2023-03-13T09:16:01.977Z,99.99
2023-03-13T09:17:01.925Z,99.99
2023-03-13T09:18:01.970Z,99.99
2023-03-13T09:19:01.949Z,99.99
2023-03-13T09:20:01.967Z,99.99
2023-03-13T09:21:01.949Z,99.99
2023-03-13T09:22:01.964Z,99.99
2023-03-13T09:23:01.955Z,99.99
2023-03-13T09:24:01.996Z,99.99
2023-03-13T09:25:01.997Z,99.99
2023-03-13T09:26:01.975Z,99.99
2023-03-13T09:27:01.975Z,99.99
2023-03-13T09:28:01.984Z,99.99
2023-03-13T09:29:02.015Z,99.99
2023-03-13T09:30:01.987Z,99.99
2023-03-13T09:31:02.077Z,99.99
2023-03-13T09:32:02.008Z,99.99
2023-03-13T09:33:02.116Z,99.99
2023-03-13T09:34:02.099Z,99.99
2023-03-13T09:35:02.022Z,99.99
2023-03-13T09:36:02.061Z,99.99
2023-03-13T09:37:02.030Z,99.99
2023-03-13T09:38:02.037Z,99.99
2023-03-13T09:39:02.042Z,99.99
2023-03-13T09:40:02.031Z,99.99
2023-03-13T09:41:06.316Z,99.99
2023-03-13T09:42:02.044Z,99.99
2023-03-13T09:43:02.061Z,99.99
2023-03-13T09:44:02.054Z,99.99
2023-03-13T09:45:02.064Z,99.99
2023-03-13T09:46:02.148Z,99.99
2023-03-13T09:47:02.072Z,99.99
2023-03-13T09:48:02.088Z,99.99
2023-03-13T09:49:02.087Z,99.99
2023-03-13T09:50:02.088Z,99.99
2023-03-13T09:51:02.100Z,99.99
2023-03-13T09:52:02.113Z,99.99
2023-03-13T09:53:02.100Z,99.99
2023-03-13T09:54:02.124Z,99.99
2023-03-13T09:55:02.176Z,99.99
2023-03-13T09:56:02.124Z,99.99
2023-03-13T09:57:02.263Z,99.99
2023-03-13T09:58:02.145Z,99.99
2023-03-13T09:59:02.145Z,99.99
2023-03-13T10:00:02.154Z,99.99
2023-03-13T10:01:02.154Z,99.99
2023-03-13T10:02:02.259Z,99.99
2023-03-13T10:03:02.174Z,99.99
2023-03-13T10:04:02.192Z,99.99
2023-03-13T10:05:02.194Z,99.99
2023-03-13T10:06:02.185Z,99.99
2023-03-13T10:07:02.196Z,99.99
2023-03-13T10:08:02.195Z,99.99
2023-03-13T10:09:02.204Z,99.99
2023-03-13T10:10:02.208Z,99.99
2023-03-13T10:11:02.240Z,99.99
2023-03-13T10:12:02.226Z,99.43
2023-03-13T10:13:02.254Z,99.19
2023-03-13T10:14:02.246Z,98.52
2023-03-13T10:15:02.246Z,96.51
2023-03-13T10:16:02.316Z,96.51
2023-03-13T10:17:02.256Z,96.37
2023-03-13T10:18:02.265Z,95.12
2023-03-13T10:19:02.280Z,94.45
2023-03-13T10:20:02.301Z,95.12
2023-03-13T10:21:02.289Z,94.98
2023-03-13T10:22:02.305Z,94.79
2023-03-13T10:23:02.315Z,93.83
2023-03-13T10:24:02.315Z,94.69
2023-03-13T10:25:02.324Z,94.40
2023-03-13T10:26:02.342Z,94.98
2023-03-13T10:27:02.347Z,94.69
2023-03-13T10:28:02.367Z,94.98
2023-03-13T10:29:02.405Z,94.74
2023-03-13T10:30:02.382Z,93.93
2023-03-13T10:31:02.438Z,93.73
2023-03-13T10:32:02.404Z,93.21
2023-03-13T10:33:02.413Z,92.68
2023-03-13T10:34:02.403Z,90.18
2023-03-13T10:58:08.053Z,88.03
2023-03-13T10:59:08.037Z,88.13
2023-03-13T11:00:08.056Z,88.03
2023-03-13T11:01:08.060Z,88.13
2023-03-13T11:02:08.108Z,88.08
2023-03-13T11:03:08.222Z,88.08
2023-03-13T11:04:08.084Z,88.37
2023-03-13T11:05:08.095Z,88.42
2023-03-13T11:06:08.102Z,88.03
2023-03-13T11:07:08.113Z,88.51
2023-03-13T11:08:08.157Z,88.42
2023-03-13T11:09:08.121Z,88.51
2023-03-13T11:10:08.138Z,88.61
2023-03-13T11:11:08.137Z,88.70
2023-03-13T11:12:08.148Z,89.47
2023-03-13T11:13:08.153Z,89.09
2023-03-13T11:14:08.185Z,88.76
2023-03-13T11:15:08.278Z,89.23
2023-03-13T11:16:08.227Z,89.33
2023-03-13T11:17:08.190Z,89.52
2023-03-13T11:18:08.230Z,90.00
2023-03-13T11:19:08.237Z,89.62
2023-03-13T11:20:08.217Z,90.09
2023-03-13T11:21:17.813Z,90.39
2023-03-13T11:22:08.269Z,90.29
2023-03-13T11:23:08.242Z,90.39
2023-03-13T11:24:08.254Z,90.77
2023-03-13T11:25:08.256Z,90.82
2023-03-13T11:26:08.263Z,90.96
2023-03-13T11:27:08.369Z,90.96
2023-03-13T11:28:08.280Z,90.72
2023-03-13T11:29:08.284Z,91.30
2023-03-13T11:30:08.416Z,91.44
2023-03-13T11:31:08.392Z,91.49
2023-03-13T11:32:08.300Z,91.49
2023-03-13T11:33:08.308Z,91.82
2023-03-13T11:34:08.334Z,92.11
2023-03-13T11:35:08.333Z,91.77
2023-03-13T11:36:08.368Z,91.58
2023-03-13T11:37:08.347Z,91.49
2023-03-13T11:38:08.348Z,91.77
2023-03-13T11:39:08.363Z,91.58
2023-03-13T11:40:08.365Z,91.97
2023-03-13T11:41:08.378Z,91.82
2023-03-13T11:42:08.372Z,92.58
2023-03-13T11:43:23.602Z,92.58
2023-03-13T11:44:08.398Z,92.21
2023-03-13T11:45:08.404Z,92.73
2023-03-13T11:46:08.587Z,92.68
2023-03-13T11:47:08.458Z,92.40
2023-03-13T11:48:08.420Z,92.40
2023-03-13T11:49:08.426Z,92.49
2023-03-13T11:50:08.437Z,92.40
2023-03-13T11:51:08.480Z,92.40
2023-03-13T11:52:08.454Z,92.21
2023-03-13T11:53:08.540Z,92.40
2023-03-13T11:54:08.463Z,92.97
2023-03-13T11:55:08.476Z,92.87
2023-03-13T11:56:08.486Z,92.97
2023-03-13T11:57:08.491Z,92.58
2023-03-13T11:58:08.497Z,92.97
2023-03-13T11:59:08.518Z,93.07
2023-03-13T12:00:08.504Z,93.16
2023-03-13T12:01:08.607Z,92.68
2023-03-13T12:02:08.618Z,92.68
2023-03-13T12:03:08.578Z,92.40
2023-03-13T12:04:08.544Z,92.54
2023-03-13T12:05:08.618Z,92.54
2023-03-13T12:06:15.829Z,92.44
2023-03-13T12:07:08.564Z,92.54
2023-03-13T12:08:08.566Z,92.06
2023-03-13T12:09:08.590Z,91.96
2023-03-13T12:10:08.597Z,91.86
2023-03-13T12:11:08.598Z,91.86
2023-03-13T12:12:08.606Z,91.19
2023-03-13T12:13:08.606Z,91.43
2023-03-13T12:14:08.615Z,91.34
2023-03-13T12:15:08.622Z,91.14
2023-03-13T12:16:08.648Z,90.19
2023-03-13T12:17:08.646Z,89.80
2023-03-13T12:18:08.689Z,89.61
2023-03-13T12:19:08.669Z,89.61
2023-03-13T12:20:08.673Z,89.90
2023-03-13T12:21:08.671Z,89.23
2023-03-13T12:22:08.738Z,89.04
2023-03-13T12:23:08.694Z,89.13
2023-03-13T12:24:08.786Z,88.65
2023-03-13T12:25:08.731Z,88.46
2023-03-13T12:26:08.743Z,88.56
2023-03-13T12:27:08.724Z,88.84
2023-03-13T12:28:08.857Z,88.79
2023-03-13T12:29:08.744Z,88.41
2023-03-13T12:30:08.754Z,88.08
2023-03-13T12:31:08.875Z,88.17
2023-03-13T12:32:08.772Z,87.98
2023-03-13T12:33:08.782Z,87.98
2023-03-13T12:34:08.817Z,87.70
2023-03-13T12:35:08.798Z,88.08
2023-03-13T12:36:08.865Z,87.88
2023-03-13T12:37:08.823Z,88.46
2023-03-13T12:38:08.827Z,87.79
2023-03-13T12:39:08.834Z,87.98
2023-03-13T12:40:11.639Z,87.84
2023-03-13T12:41:08.853Z,87.84
2023-03-13T12:42:08.868Z,88.13
2023-03-13T12:43:08.869Z,87.74
2023-03-13T12:44:09.652Z,87.94
2023-03-13T12:45:08.902Z,87.55
2023-03-13T12:46:09.094Z,87.55
2023-03-13T12:47:08.906Z,87.37
2023-03-13T12:48:08.953Z,87.84
2023-03-13T12:49:08.931Z,88.13
2023-03-13T12:50:08.953Z,88.23
2023-03-13T12:51:08.938Z,88.13
2023-03-13T12:52:08.943Z,88.18
2023-03-13T12:53:08.962Z,88.18
2023-03-13T12:54:09.022Z,88.51
2023-03-13T12:55:08.990Z,88.37
2023-03-13T12:56:08.989Z,88.61
2023-03-13T12:57:08.989Z,88.37
2023-03-13T12:58:08.992Z,88.70
2023-03-13T12:59:09.002Z,88.42
2023-03-13T13:00:09.014Z,89.33
2023-03-13T13:01:09.027Z,89.09
2023-03-13T13:02:09.021Z,88.70
2023-03-13T13:03:09.029Z,88.32
2023-03-13T13:04:09.071Z,88.42
2023-03-13T13:05:09.045Z,88.61
2023-03-13T13:06:09.080Z,88.23
2023-03-13T13:07:09.073Z,88.17
2023-03-13T13:08:09.065Z,88.08
2023-03-13T13:09:09.082Z,87.88
2023-03-13T13:10:09.096Z,87.60
2023-03-13T13:11:09.091Z,87.50
2023-03-13T13:12:09.097Z,87.79
2023-03-13T13:13:09.106Z,87.21
2023-03-13T13:14:09.121Z,87.21
2023-03-13T13:15:09.124Z,87.21
2023-03-13T13:16:09.251Z,86.74
2023-03-13T13:17:09.148Z,87.31
2023-03-13T13:18:09.149Z,87.21
2023-03-13T13:19:09.157Z,86.83
2023-03-13T13:20:09.168Z,86.93
2023-03-13T13:21:09.171Z,86.54
2023-03-13T13:22:09.258Z,86.54
2023-03-13T13:23:09.190Z,86.83
2023-03-13T13:24:09.202Z,87.31
2023-03-13T13:25:09.224Z,86.64
2023-03-13T13:26:09.216Z,86.16
2023-03-13T13:27:09.243Z,86.35
2023-03-13T13:29:16.845Z,86.54
2023-03-13T13:30:16.870Z,86.49
2023-03-13T13:31:17.085Z,86.40
2023-03-13T13:32:16.971Z,86.01
2023-03-13T13:33:16.888Z,85.63
2023-03-13T13:34:16.882Z,85.72
2023-03-13T13:35:16.903Z,85.63
2023-03-13T13:36:16.974Z,86.01
2023-03-13T13:43:09.428Z,85.34
2023-03-13T13:44:09.401Z,85.44
2023-03-13T13:45:09.426Z,85.25
2023-03-13T13:46:09.471Z,85.34
2023-03-13T13:47:09.427Z,85.25
2023-03-13T13:48:09.451Z,85.05
2023-03-13T13:49:09.461Z,85.25
2023-03-13T13:50:09.455Z,85.15
2023-03-13T13:51:09.481Z,84.95
2023-03-13T13:52:09.472Z,85.34
2023-03-13T13:53:09.486Z,85.44
2023-03-13T14:01:45.490Z,84.48
2023-03-13T14:02:45.301Z,84.09
2023-03-13T14:03:45.315Z,84.04
2023-03-13T14:04:45.416Z,84.04
2023-03-13T14:05:45.324Z,84.09
2023-03-13T14:06:45.356Z,84.19
2023-03-13T14:07:45.347Z,84.14
2023-03-13T14:08:45.375Z,84.09
2023-03-13T14:09:45.378Z,84.09
2023-03-13T14:10:45.395Z,84.52
2023-03-13T14:11:45.386Z,84.00
2023-03-13T14:12:45.394Z,83.81
2023-03-13T14:13:45.424Z,84.09
2023-03-13T14:14:45.438Z,83.91
2023-03-13T14:15:45.542Z,84.19
2023-03-13T14:16:45.433Z,84.00
2023-03-13T14:17:45.500Z,84.00
2023-03-13T14:18:45.452Z,84.09
2023-03-13T14:19:45.486Z,84.19
2023-03-13T14:20:45.470Z,84.19
2023-03-13T14:21:45.504Z,84.28
2023-03-13T14:22:45.509Z,83.71
2023-03-13T14:23:45.503Z,84.00
2023-03-13T14:24:45.528Z,84.09
2023-03-13T14:25:45.519Z,84.09
2023-03-13T14:26:45.546Z,84.00
2023-03-13T14:27:45.566Z,83.71
2023-03-13T14:28:45.565Z,83.91
2023-03-13T14:29:45.554Z,83.33
2023-03-13T14:30:45.594Z,83.23
2023-03-13T14:31:45.688Z,83.23
2023-03-13T14:32:45.656Z,83.61
2023-03-13T14:33:45.623Z,83.18
2023-03-13T14:34:45.622Z,83.65
2023-03-13T14:35:45.678Z,83.27
2023-03-13T14:36:45.647Z,83.52
2023-03-13T14:37:45.626Z,83.18
2023-03-13T14:38:45.657Z,82.75
2023-03-13T14:39:45.677Z,82.21
2023-03-13T14:40:45.685Z,83.08
2023-03-13T14:41:45.663Z,83.33
2023-03-13T14:42:45.672Z,82.31
2023-03-13T14:43:45.683Z,82.37
2023-03-13T14:44:45.735Z,82.18
2023-03-13T14:45:45.718Z,82.37
2023-03-13T14:46:45.771Z,82.79
2023-03-13T14:47:45.713Z,82.65
2023-03-13T14:48:45.820Z,82.94
2023-03-13T14:49:45.825Z,82.85
2023-03-13T14:50:45.767Z,83.04
2023-03-13T14:51:45.758Z,82.65
2023-03-13T14:52:45.754Z,82.85
2023-03-13T14:53:45.769Z,82.94
2023-03-13T14:54:45.771Z,82.75
2023-03-13T14:55:45.790Z,82.75
2023-03-13T14:56:45.813Z,82.75
2023-03-13T14:57:45.818Z,82.94
2023-03-13T14:58:45.827Z,83.04
2023-03-13T14:59:45.835Z,83.14
2023-03-13T15:00:45.942Z,83.33
2023-03-13T15:01:45.852Z,83.61
2023-03-13T15:02:45.841Z,83.52
2023-03-13T15:03:45.851Z,83.52
2023-03-13T15:04:46.017Z,83.23
2023-03-13T15:05:45.910Z,83.52
2023-03-13T15:06:45.896Z,83.23
2023-03-13T15:07:45.882Z,83.14
2023-03-13T15:08:45.910Z,83.52
2023-03-13T15:09:45.896Z,83.42
2023-03-13T15:10:45.934Z,83.42
2023-03-13T15:11:45.919Z,84.00
2023-03-13T15:12:45.943Z,83.91
2023-03-13T15:13:45.957Z,83.81
2023-03-13T15:14:45.965Z,83.81
2023-03-13T15:15:45.971Z,83.71
2023-03-13T15:16:46.028Z,84.28
2023-03-13T15:17:45.996Z,84.28
2023-03-13T15:18:45.995Z,84.38
2023-03-13T15:19:46.001Z,84.09
2023-03-13T15:20:46.009Z,84.48
2023-03-13T15:21:46.110Z,84.91
2023-03-13T15:22:46.041Z,84.82
2023-03-13T15:23:46.121Z,84.72
2023-03-13T15:24:59.602Z,85.11
2023-03-13T15:25:46.092Z,85.21
2023-03-13T15:26:48.600Z,84.82
2023-03-13T15:27:46.125Z,85.21
2023-03-13T15:28:46.132Z,85.39
2023-03-13T15:29:46.116Z,85.39
2023-03-13T15:30:46.118Z,85.49
2023-03-13T15:31:46.224Z,85.49
2023-03-13T15:32:46.233Z,85.49
2023-03-13T15:33:46.109Z,85.58
2023-03-13T15:34:46.131Z,85.68
2023-03-13T15:35:46.138Z,85.58
2023-03-13T15:36:46.151Z,85.97
2023-03-13T15:37:46.143Z,85.68
2023-03-13T15:38:46.151Z,85.58
2023-03-13T15:39:46.144Z,85.68
2023-03-13T15:40:46.148Z,85.68
2023-03-13T15:41:46.205Z,85.78
2023-03-13T15:42:46.170Z,85.88
2023-03-13T15:43:46.191Z,85.68
2023-03-13T15:44:46.202Z,85.68
2023-03-13T15:45:46.262Z,85.78
2023-03-13T15:46:46.225Z,85.49
2023-03-13T15:47:46.308Z,85.49
2023-03-13T15:48:46.231Z,85.68
2023-03-13T15:49:46.241Z,85.68
2023-03-13T15:50:46.232Z,85.58
2023-03-13T15:51:46.253Z,85.68
2023-03-13T15:52:46.257Z,85.78
2023-03-13T15:53:46.547Z,85.58
2023-03-13T15:54:46.280Z,85.58
2023-03-13T15:55:46.270Z,85.21
2023-03-13T15:56:46.296Z,85.21
2023-03-13T15:57:46.303Z,84.86
2023-03-13T15:58:46.310Z,85.34
2023-03-13T15:59:46.319Z,85.34
2023-03-13T16:00:46.342Z,85.25
2023-03-13T16:01:46.337Z,84.48
2023-03-13T16:02:46.328Z,84.19
2023-03-13T16:03:46.358Z,84.38
2023-03-13T16:04:46.456Z,84.00
2023-03-13T16:05:46.369Z,83.61
2023-03-13T16:06:46.380Z,83.23
2023-03-13T16:07:46.385Z,83.61
2023-03-13T16:08:46.424Z,83.23
2023-03-13T16:09:46.434Z,83.23
2023-03-13T16:10:46.425Z,83.23
2023-03-13T16:11:46.409Z,82.94
2023-03-13T16:12:46.408Z,83.23
2023-03-13T16:13:46.458Z,82.18
2023-03-13T16:14:46.427Z,82.94
2023-03-13T16:15:46.439Z,83.14
2023-03-13T16:16:46.551Z,83.04
2023-03-13T16:17:46.499Z,82.71
2023-03-13T16:18:46.461Z,82.71
2023-03-13T16:19:46.484Z,83.09
2023-03-13T16:20:46.583Z,83.00
2023-03-13T16:21:46.501Z,83.19
2023-03-13T16:22:46.540Z,83.19
2023-03-13T16:23:46.545Z,83.29
2023-03-13T16:24:46.554Z,83.38
2023-03-13T16:25:46.660Z,83.48
2023-03-13T16:26:46.522Z,83.95
2023-03-13T16:27:46.552Z,83.86
2023-03-13T16:28:46.577Z,83.95
2023-03-13T16:29:46.680Z,83.67
2023-03-13T16:30:46.697Z,83.95
2023-03-13T16:31:46.589Z,84.05
2023-03-13T16:32:46.637Z,84.05
2023-03-13T16:33:46.638Z,83.95
2023-03-13T16:34:46.632Z,84.25
2023-03-13T16:35:46.676Z,84.15
2023-03-13T16:36:46.669Z,83.95
2023-03-13T16:37:46.665Z,83.76
2023-03-13T16:38:46.658Z,83.76
2023-03-13T16:39:46.669Z,83.67
2023-03-13T16:40:46.678Z,83.95
2023-03-13T16:41:46.710Z,83.76
2023-03-13T16:42:46.693Z,83.95
2023-03-13T16:43:46.722Z,83.67
2023-03-13T16:44:46.711Z,84.05
2023-03-13T16:45:46.731Z,84.34
2023-03-13T16:47:04.177Z,84.05
2023-03-13T16:47:46.759Z,84.01
2023-03-13T16:48:46.740Z,84.20
2023-03-13T16:49:47.544Z,83.82
2023-03-13T16:50:46.709Z,84.01
2023-03-13T16:51:46.730Z,84.68
2023-03-13T16:52:46.822Z,84.11
2023-03-13T16:53:46.807Z,84.58
2023-03-13T16:54:46.806Z,84.49
2023-03-13T16:55:46.746Z,84.58
2023-03-13T16:56:46.753Z,84.39
2023-03-13T16:57:46.836Z,84.78
2023-03-13T16:58:46.787Z,84.68
2023-03-13T16:59:46.818Z,85.06
2023-03-13T17:00:59.277Z,85.25
2023-03-13T17:01:46.809Z,85.06
2023-03-13T17:02:46.903Z,85.50
2023-03-13T17:03:46.825Z,85.50
2023-03-13T17:04:46.962Z,85.69
2023-03-13T17:05:46.818Z,86.08
2023-03-13T17:06:46.846Z,86.46
2023-03-13T17:07:46.831Z,85.98
2023-03-13T17:08:46.839Z,86.55
2023-03-13T17:09:46.854Z,87.03
2023-03-13T17:11:46.865Z,87.03
2023-03-13T17:12:46.869Z,86.94
2023-03-13T17:13:46.940Z,87.23
2023-03-13T17:14:46.968Z,87.13
2023-03-13T17:15:46.988Z,87.23
2023-03-13T17:16:46.894Z,87.90
2023-03-13T17:17:47.100Z,87.41
2023-03-13T17:18:46.916Z,87.41
2023-03-13T17:19:46.966Z,87.51
2023-03-13T17:20:46.920Z,87.66
2023-03-13T17:21:46.929Z,87.90
2023-03-13T17:22:46.934Z,87.95
2023-03-13T17:23:46.961Z,88.23
2023-03-13T17:24:46.949Z,87.85
2023-03-13T17:25:46.981Z,87.76
2023-03-13T17:26:46.983Z,87.85
2023-03-13T17:27:46.969Z,88.04
2023-03-13T17:28:46.976Z,87.95
2023-03-13T17:29:47.005Z,88.43